createdAt,value
2022-09-06T00:00:27.571Z,79.60
2022-09-06T00:02:57.566Z,79.60
2022-09-06T00:05:25.824Z,79.10
2022-09-06T00:07:53.911Z,78.50
2022-09-06T00:10:22.222Z,78.40
2022-09-06T00:12:51.267Z,78.10
2022-09-06T00:15:19.874Z,78.10
2022-09-06T00:17:48.371Z,77.50
2022-09-06T00:20:18.128Z,77.60
2022-09-06T00:22:46.157Z,77.60
2022-09-06T00:25:14.696Z,77.60
2022-09-06T00:27:42.779Z,78.90
2022-09-06T00:30:12.156Z,83.10
2022-09-06T00:32:41.177Z,84.80
2022-09-06T00:35:09.294Z,86.90
2022-09-06T00:37:38.701Z,89.50
2022-09-06T00:40:07.887Z,91.10
2022-09-06T00:42:36.042Z,92.30
2022-09-06T00:45:06.051Z,95.30
2022-09-06T00:47:35.560Z,97.60
2022-09-06T00:50:05.553Z,99.00
2022-09-06T00:52:35.330Z,99.90
2022-09-06T00:55:05.373Z,99.90
2022-09-06T00:57:34.943Z,99.90
2022-09-06T01:00:05.344Z,99.90
2022-09-06T01:02:33.503Z,99.90
2022-09-06T01:05:02.031Z,99.90
2022-09-06T01:07:38.837Z,99.90
2022-09-06T01:10:26.910Z,99.90
2022-09-06T01:13:05.724Z,99.90
2022-09-06T01:15:42.150Z,99.90
2022-09-06T01:18:22.726Z,99.90
2022-09-06T01:21:09.053Z,99.90
2022-09-06T01:24:15.243Z,99.90
2022-09-06T01:27:16.122Z,99.90
2022-09-06T01:29:51.161Z,99.90
2022-09-06T01:32:28.914Z,99.90
2022-09-06T01:35:04.117Z,99.90
2022-09-06T01:37:32.363Z,99.90
2022-09-06T01:40:00.513Z,99.90
2022-09-06T01:42:31.065Z,99.90
2022-09-06T01:45:03.604Z,99.90
2022-09-06T01:47:46.172Z,99.90
2022-09-06T01:50:33.255Z,99.90
2022-09-06T01:53:12.089Z,99.90
2022-09-06T01:55:48.128Z,99.90
2022-09-06T01:58:32.160Z,99.90
2022-09-06T02:01:06.300Z,99.90
2022-09-06T02:03:41.277Z,99.90
2022-09-06T02:06:14.122Z,99.90
2022-09-06T02:08:45.939Z,99.90
2022-09-06T02:11:15.403Z,99.90
2022-09-06T02:13:49.278Z,99.90
2022-09-06T02:16:22.180Z,99.90
2022-09-06T02:18:55.862Z,99.90
2022-09-06T02:21:28.069Z,99.90
2022-09-06T02:23:58.441Z,99.90
2022-09-06T02:26:30.513Z,99.90
2022-09-06T02:28:58.823Z,99.90
2022-09-06T02:31:32.950Z,99.90
2022-09-06T02:34:01.325Z,99.90
2022-09-06T02:36:31.524Z,99.90
2022-09-06T02:39:01.086Z,99.90
2022-09-06T02:41:30.985Z,99.90
2022-09-06T02:43:59.199Z,99.90
2022-09-06T02:46:28.686Z,99.90
2022-09-06T02:48:57.530Z,99.90
2022-09-06T02:51:25.581Z,99.90
2022-09-06T02:53:53.685Z,99.90
2022-09-06T02:56:21.739Z,99.90
2022-09-06T02:58:49.904Z,99.90
2022-09-06T03:01:18.038Z,99.90
2022-09-06T03:03:47.499Z,99.90
2022-09-06T03:06:16.206Z,99.90
2022-09-06T03:08:44.302Z,99.90
2022-09-06T03:11:12.374Z,99.90
2022-09-06T03:13:40.461Z,99.90
2022-09-06T03:16:09.025Z,99.90
2022-09-06T03:18:37.112Z,99.90
2022-09-06T03:21:06.813Z,99.90
2022-09-06T03:23:35.036Z,99.90
2022-09-06T03:26:03.065Z,99.90
2022-09-06T03:28:31.140Z,99.90
2022-09-06T03:30:59.401Z,99.90
2022-09-06T03:33:27.865Z,99.90
2022-09-06T03:35:57.700Z,99.90
2022-09-06T03:38:28.702Z,99.90
2022-09-06T03:40:57.097Z,99.90
2022-09-06T03:43:26.489Z,99.90
2022-09-06T03:45:57.019Z,99.90
2022-09-06T03:48:27.019Z,99.90
2022-09-06T03:50:57.299Z,99.90
2022-09-06T03:53:28.377Z,99.90
2022-09-06T03:55:58.557Z,99.90
2022-09-06T03:58:30.674Z,99.90
2022-09-06T04:01:03.585Z,99.90
2022-09-06T04:03:32.044Z,99.90
2022-09-06T04:06:00.173Z,99.90
2022-09-06T04:08:29.875Z,99.90
2022-09-06T04:10:58.812Z,99.90
2022-09-06T04:13:28.074Z,99.90
2022-09-06T04:15:56.323Z,99.90
2022-09-06T04:18:24.758Z,99.90
2022-09-06T04:20:54.461Z,99.90
2022-09-06T04:23:22.811Z,99.90
2022-09-06T04:25:53.926Z,99.90
2022-09-06T04:28:22.584Z,99.90
2022-09-06T04:30:54.679Z,99.90
2022-09-06T04:33:25.767Z,99.90
2022-09-06T04:35:54.473Z,99.90
2022-09-06T04:38:22.547Z,99.90
2022-09-06T04:40:52.151Z,99.90
2022-09-06T04:43:20.322Z,99.90
2022-09-06T04:45:48.545Z,99.90
2022-09-06T04:48:17.250Z,99.90
2022-09-06T04:50:45.341Z,99.90
2022-09-06T04:53:13.390Z,99.90
2022-09-06T04:55:41.520Z,99.90
2022-09-06T04:58:10.968Z,99.90
2022-09-06T05:00:40.369Z,99.90
2022-09-06T05:03:09.835Z,99.90
2022-09-06T05:05:37.989Z,99.90
2022-09-06T05:08:06.093Z,99.90
2022-09-06T05:10:34.291Z,99.90
2022-09-06T05:13:02.492Z,99.90
2022-09-06T05:15:31.944Z,99.90
2022-09-06T05:18:04.288Z,99.90
2022-09-06T05:20:32.610Z,99.90
2022-09-06T05:23:01.510Z,99.90
2022-09-06T05:25:29.593Z,99.90
2022-09-06T05:27:57.672Z,99.90
2022-09-06T05:30:25.767Z,99.90
2022-09-06T05:32:55.230Z,99.90
2022-09-06T05:35:23.300Z,99.90
2022-09-06T05:37:51.378Z,99.90
2022-09-06T05:40:19.425Z,99.90
2022-09-06T05:42:47.574Z,99.90
2022-09-06T05:45:15.840Z,99.90
2022-09-06T05:47:43.886Z,99.90
2022-09-06T05:50:13.505Z,99.90
2022-09-06T05:52:41.729Z,99.90
2022-09-06T05:55:10.617Z,99.90
2022-09-06T05:57:38.996Z,99.90
2022-09-06T06:00:07.989Z,99.90
2022-09-06T06:02:39.937Z,99.90
2022-09-06T06:05:08.986Z,99.90
2022-09-06T06:07:38.408Z,99.90
2022-09-06T06:10:07.362Z,99.90
2022-09-06T06:12:35.403Z,99.90
2022-09-06T06:15:05.630Z,99.90
2022-09-06T06:17:33.734Z,99.90
2022-09-06T06:20:01.791Z,99.90
2022-09-06T06:22:29.922Z,99.90
2022-09-06T06:24:59.315Z,99.90
2022-09-06T06:27:27.366Z,99.90
2022-09-06T06:29:55.420Z,99.90
2022-09-06T06:32:23.503Z,99.90
2022-09-06T06:34:51.561Z,99.90
2022-09-06T06:37:19.606Z,99.90
2022-09-06T06:39:47.974Z,99.90
2022-09-06T06:42:17.442Z,99.90
2022-09-06T06:44:53.757Z,99.90
2022-09-06T06:47:22.020Z,99.90
2022-09-06T06:49:50.109Z,99.90
2022-09-06T06:52:18.181Z,99.90
2022-09-06T06:54:46.282Z,99.90
2022-09-06T06:57:14.366Z,99.90
2022-09-06T06:59:43.790Z,99.90
2022-09-06T07:02:12.586Z,99.90
2022-09-06T07:04:40.865Z,99.90
2022-09-06T07:12:45.851Z,99.90
2022-09-06T07:15:15.369Z,99.90
2022-09-06T07:17:44.099Z,99.90
2022-09-06T07:20:13.241Z,99.90
2022-09-06T07:22:42.225Z,99.90
2022-09-06T07:25:12.177Z,99.90
2022-09-06T07:27:49.112Z,99.90
2022-09-06T07:30:20.168Z,99.90
2022-09-06T07:32:48.503Z,99.90
2022-09-06T07:35:16.842Z,99.90
2022-09-06T07:37:44.996Z,99.90
2022-09-06T07:40:13.212Z,99.90
2022-09-06T07:42:41.438Z,99.90
2022-09-06T07:45:10.632Z,99.90
2022-09-06T07:50:47.250Z,99.90
2022-09-06T07:53:30.623Z,99.90
2022-09-06T07:56:00.529Z,99.90
2022-09-06T07:58:29.521Z,99.70
2022-09-06T08:01:16.162Z,99.50
2022-09-06T08:03:47.656Z,99.60
2022-09-06T08:06:15.942Z,99.30
2022-09-06T08:08:59.816Z,99.20
2022-09-06T08:11:30.767Z,99.20
2022-09-06T08:14:00.203Z,99.10
2022-09-06T08:16:30.216Z,98.70
2022-09-06T08:19:01.315Z,98.40
2022-09-06T08:21:32.118Z,98.30
2022-09-06T08:24:02.022Z,98.30
2022-09-06T08:26:31.505Z,98.00
2022-09-06T08:29:00.849Z,97.80
2022-09-06T08:31:30.525Z,97.50
2022-09-06T08:34:00.811Z,97.30
2022-09-06T08:36:30.680Z,97.20
2022-09-06T08:38:58.974Z,96.70
2022-09-06T08:41:31.557Z,96.80
2022-09-06T08:46:57.120Z,96.50
2022-09-06T08:49:30.046Z,96.50
2022-09-06T08:52:28.695Z,96.50
2022-09-06T08:55:10.692Z,96.20
2022-09-06T08:57:52.536Z,96.20
2022-09-06T09:00:23.103Z,95.80
2022-09-06T09:02:56.203Z,95.90
2022-09-06T09:05:29.330Z,95.50
2022-09-06T09:08:06.988Z,95.20
2022-09-06T09:10:42.615Z,95.00
2022-09-06T09:13:19.737Z,95.20
2022-09-06T09:15:47.977Z,95.10
2022-09-06T09:18:26.722Z,95.10
2022-09-06T09:20:56.208Z,95.10
2022-09-06T09:23:24.802Z,95.00
2022-09-06T09:25:57.465Z,95.10
2022-09-06T09:28:26.107Z,95.00
2022-09-06T09:30:56.090Z,94.80
2022-09-06T09:33:28.094Z,94.70
2022-09-06T09:36:00.262Z,94.50
2022-09-06T09:38:31.272Z,94.20
2022-09-06T09:41:02.859Z,94.30
2022-09-06T09:43:32.837Z,93.90
2022-09-06T09:46:17.126Z,93.90
2022-09-06T09:49:02.040Z,93.80
2022-09-06T09:51:33.582Z,93.50
2022-09-06T09:54:04.946Z,93.60
2022-09-06T09:56:44.792Z,93.70
2022-09-06T09:59:23.343Z,93.40
2022-09-06T10:01:55.172Z,93.00
2022-09-06T10:04:46.695Z,93.00
2022-09-06T10:07:18.932Z,93.00
2022-09-06T10:09:50.413Z,93.10
2022-09-06T10:12:28.454Z,92.80
2022-09-06T10:14:57.815Z,93.80
2022-09-06T10:17:32.339Z,92.90
2022-09-06T10:20:06.313Z,92.60
2022-09-06T10:22:49.844Z,92.30
2022-09-06T10:25:43.009Z,92.30
2022-09-06T10:28:36.489Z,92.90
2022-09-06T10:31:43.660Z,92.90
2022-09-06T10:34:51.682Z,92.90
2022-09-06T10:37:37.886Z,91.70
2022-09-06T10:40:10.216Z,91.60
2022-09-06T10:42:45.224Z,92.10
2022-09-06T10:45:31.862Z,91.90
2022-09-06T10:48:04.285Z,92.00
2022-09-06T10:50:41.478Z,91.70
2022-09-06T10:53:14.938Z,91.60
2022-09-06T10:55:49.246Z,91.40
2022-09-06T10:58:25.069Z,91.30
2022-09-06T11:00:59.127Z,91.10
2022-09-06T11:06:26.764Z,91.00
2022-09-06T11:09:03.664Z,91.10
2022-09-06T11:11:40.424Z,91.30
2022-09-06T11:14:13.741Z,91.30
2022-09-06T11:16:48.158Z,91.20
2022-09-06T11:19:22.643Z,91.30
2022-09-06T11:22:27.726Z,91.20
2022-09-06T11:25:27.575Z,90.70
2022-09-06T11:27:59.024Z,91.10
2022-09-06T11:30:28.568Z,90.80
2022-09-06T11:33:11.517Z,90.80
2022-09-06T11:35:43.423Z,90.80
2022-09-06T11:38:23.435Z,90.60
2022-09-06T11:41:00.612Z,90.60
2022-09-06T11:43:48.449Z,91.00
2022-09-06T11:46:54.524Z,90.70
2022-09-06T11:49:35.319Z,91.00
2022-09-06T11:52:04.356Z,90.90
2022-09-06T11:54:43.527Z,90.80
2022-09-06T11:57:16.867Z,90.50
2022-09-06T11:59:57.352Z,90.20
2022-09-06T12:02:38.134Z,90.00
2022-09-06T12:05:22.643Z,89.80
2022-09-06T12:08:26.767Z,89.60
2022-09-06T12:11:07.311Z,89.40
2022-09-06T12:13:41.888Z,89.00
2022-09-06T12:16:13.295Z,89.10
2022-09-06T12:18:59.353Z,89.00
2022-09-06T12:21:39.920Z,88.60
2022-09-06T12:24:09.737Z,88.20
2022-09-06T12:26:55.320Z,87.90
2022-09-06T12:29:26.688Z,87.40
2022-09-06T12:31:58.809Z,87.00
2022-09-06T12:34:29.929Z,86.60
2022-09-06T12:37:01.687Z,86.30
2022-09-06T12:39:30.154Z,86.10
2022-09-06T12:42:02.057Z,86.30
2022-09-06T12:44:34.651Z,85.70
2022-09-06T12:47:13.795Z,85.90
2022-09-06T12:49:42.337Z,85.90
2022-09-06T12:52:13.174Z,85.20
2022-09-06T12:54:47.270Z,85.30
2022-09-06T12:57:20.034Z,84.20
2022-09-06T12:59:54.803Z,84.00
2022-09-06T13:02:29.917Z,84.30
2022-09-06T13:05:06.242Z,83.90
2022-09-06T13:07:36.394Z,83.20
2022-09-06T13:10:05.504Z,83.50
2022-09-06T13:12:35.642Z,82.20
2022-09-06T13:15:08.647Z,81.60
2022-09-06T13:17:38.936Z,81.30
2022-09-06T13:20:15.447Z,80.50
2022-09-06T13:22:46.436Z,80.30
2022-09-06T13:25:20.447Z,79.00
2022-09-06T13:27:51.097Z,78.50
2022-09-06T13:30:41.924Z,77.10
2022-09-06T13:33:25.425Z,75.60
2022-09-06T13:36:08.298Z,74.90
2022-09-06T13:38:41.156Z,74.60
2022-09-06T13:41:41.068Z,76.10
2022-09-06T13:44:21.345Z,77.40
2022-09-06T13:46:55.114Z,76.50
2022-09-06T13:49:24.741Z,76.60
2022-09-06T13:51:54.555Z,73.80
2022-09-06T13:54:23.699Z,74.10
2022-09-06T13:56:51.889Z,72.90
2022-09-06T13:59:20.154Z,72.90
2022-09-06T14:01:54.004Z,73.10
2022-09-06T14:04:23.858Z,71.90
2022-09-06T14:06:51.925Z,70.00
2022-09-06T14:09:20.012Z,69.40
2022-09-06T14:11:48.566Z,68.30
2022-09-06T14:14:17.671Z,65.10
2022-09-06T14:16:46.037Z,65.60
2022-09-06T14:19:16.013Z,65.80
2022-09-06T14:21:45.490Z,65.50
2022-09-06T14:24:13.767Z,63.70
2022-09-06T14:26:41.923Z,65.50
2022-09-06T14:29:09.954Z,65.30
2022-09-06T14:31:38.880Z,65.00
2022-09-06T14:34:06.961Z,64.10
2022-09-06T14:36:36.288Z,62.20
2022-09-06T14:39:05.837Z,60.10
2022-09-06T14:41:33.944Z,59.50
2022-09-06T14:44:02.093Z,56.40
2022-09-06T14:46:30.689Z,54.60
2022-09-06T14:49:00.590Z,54.50
2022-09-06T14:51:29.339Z,54.20
2022-09-06T14:54:00.648Z,52.30
2022-09-06T14:56:30.360Z,51.60
2022-09-06T14:59:00.042Z,50.90
2022-09-06T15:01:34.081Z,51.00
2022-09-06T15:04:07.586Z,50.20
2022-09-06T15:06:36.854Z,49.10
2022-09-06T15:09:05.744Z,47.80
2022-09-06T15:11:36.726Z,47.70
2022-09-06T15:14:07.774Z,47.30
2022-09-06T15:16:36.472Z,45.70
2022-09-06T15:19:04.716Z,43.70
2022-09-06T15:21:33.641Z,43.30
2022-09-06T15:24:02.530Z,44.40
2022-09-06T15:26:31.403Z,45.70
2022-09-06T15:29:01.245Z,47.30
2022-09-06T15:31:29.958Z,47.70
2022-09-06T15:33:58.350Z,48.10
2022-09-06T15:36:27.434Z,49.10
2022-09-06T15:38:57.498Z,50.00
2022-09-06T15:41:27.546Z,50.20
2022-09-06T15:43:57.374Z,51.30
2022-09-06T15:46:44.600Z,52.80
2022-09-06T15:49:15.151Z,55.40
2022-09-06T15:51:43.922Z,55.40
2022-09-06T15:54:14.010Z,55.10
2022-09-06T15:56:42.400Z,55.40
2022-09-06T15:59:10.904Z,55.00
2022-09-06T16:01:40.803Z,55.40
2022-09-06T16:04:09.000Z,55.30
2022-09-06T16:06:39.694Z,54.50
2022-09-06T16:09:10.221Z,54.30
2022-09-06T16:11:38.763Z,54.30
2022-09-06T16:14:09.003Z,54.10
2022-09-06T16:16:38.243Z,54.60
2022-09-06T16:19:08.470Z,54.20
2022-09-06T16:21:38.829Z,54.20
2022-09-06T16:24:09.462Z,54.30
2022-09-06T16:26:39.091Z,53.90
2022-09-06T16:29:09.181Z,54.00
2022-09-06T16:31:40.314Z,54.30
2022-09-06T16:34:11.729Z,54.80
2022-09-06T16:36:40.755Z,55.10
2022-09-06T16:39:09.424Z,55.30
2022-09-06T16:41:40.659Z,55.40
2022-09-06T16:44:09.486Z,56.20
2022-09-06T16:46:40.054Z,54.50
2022-09-06T16:49:08.502Z,54.30
2022-09-06T16:51:38.219Z,55.40
2022-09-06T16:54:06.837Z,56.80
2022-09-06T16:56:36.219Z,58.40
2022-09-06T16:59:06.522Z,57.50
2022-09-06T17:01:36.520Z,56.70
2022-09-06T17:04:05.765Z,55.90
2022-09-06T17:06:38.227Z,57.80
2022-09-06T17:09:07.765Z,59.20
2022-09-06T17:11:37.240Z,58.00
2022-09-06T17:14:05.407Z,57.70
2022-09-06T17:16:51.087Z,57.50
2022-09-06T17:19:19.319Z,57.80
2022-09-06T17:21:47.717Z,58.90
2022-09-06T17:24:17.323Z,59.40
2022-09-06T17:26:45.436Z,59.40
2022-09-06T17:29:13.640Z,60.00
2022-09-06T17:31:41.769Z,60.10
2022-09-06T17:34:10.234Z,60.90
2022-09-06T17:36:38.561Z,61.20
2022-09-06T17:39:09.130Z,61.70
2022-09-06T17:41:40.298Z,62.10
2022-09-06T17:44:11.124Z,62.60
2022-09-06T17:46:51.867Z,62.90
2022-09-06T17:49:20.726Z,63.50
2022-09-06T17:51:49.536Z,64.00
2022-09-06T17:54:18.034Z,64.50
2022-09-06T17:56:47.540Z,64.70
2022-09-06T17:59:15.931Z,64.90
2022-09-06T18:01:45.837Z,65.60
2022-09-06T18:04:15.988Z,65.90
2022-09-06T18:06:46.546Z,65.40
2022-09-06T18:09:17.985Z,65.10
2022-09-06T18:11:47.533Z,66.20
2022-09-06T18:14:18.438Z,65.90
2022-09-06T18:16:49.031Z,66.10
2022-09-06T18:19:18.737Z,66.20
2022-09-06T18:21:48.103Z,66.50
2022-09-06T18:24:16.886Z,66.40
2022-09-06T18:26:45.508Z,67.00
2022-09-06T18:29:18.356Z,67.10
2022-09-06T18:31:46.635Z,67.50
2022-09-06T18:34:16.467Z,67.70
2022-09-06T18:36:44.696Z,68.10
2022-09-06T18:39:13.310Z,68.30
2022-09-06T18:41:58.727Z,68.80
2022-09-06T18:44:32.411Z,68.80
2022-09-06T18:47:02.179Z,68.90
2022-09-06T18:49:31.155Z,69.10
2022-09-06T18:51:59.563Z,69.20
2022-09-06T18:54:27.721Z,68.40
2022-09-06T18:56:55.990Z,68.50
2022-09-06T18:59:24.223Z,68.60
2022-09-06T19:01:54.066Z,69.10
2022-09-06T19:04:22.517Z,69.00
2022-09-06T19:06:50.785Z,69.20
2022-09-06T19:09:19.050Z,68.80
2022-09-06T19:11:51.542Z,69.00
2022-09-06T19:14:20.345Z,69.30
2022-09-06T19:16:50.232Z,69.40
2022-09-06T19:19:21.332Z,69.60
2022-09-06T19:21:49.549Z,69.50
2022-09-06T19:24:17.697Z,69.70
2022-09-06T19:26:46.880Z,70.30
2022-09-06T19:29:17.394Z,70.50
2022-09-06T19:31:47.066Z,70.80
2022-09-06T19:34:16.103Z,71.30
2022-09-06T19:36:46.112Z,71.40
2022-09-06T19:39:15.944Z,71.60
2022-09-06T19:41:46.606Z,71.80
2022-09-06T19:44:15.580Z,72.10
2022-09-06T19:46:46.174Z,72.10
2022-09-06T19:49:15.575Z,72.30
2022-09-06T19:51:46.396Z,72.50
2022-09-06T19:54:15.462Z,72.80
2022-09-06T19:56:44.260Z,72.90
2022-09-06T19:59:14.046Z,73.00
2022-09-06T20:01:44.146Z,73.50
2022-09-06T20:04:13.972Z,73.90
2022-09-06T20:06:42.767Z,74.20
2022-09-06T20:09:12.700Z,74.40
2022-09-06T20:11:42.628Z,74.70
2022-09-06T20:14:11.773Z,74.70
2022-09-06T20:16:42.086Z,74.70
2022-09-06T20:19:11.853Z,75.00
2022-09-06T20:21:40.091Z,74.90
2022-09-06T20:24:08.423Z,74.90
2022-09-06T20:26:37.958Z,75.10
2022-09-06T20:29:06.583Z,75.20
2022-09-06T20:31:36.450Z,75.10
2022-09-06T20:34:06.367Z,75.20
2022-09-06T20:36:34.786Z,75.20
2022-09-06T20:39:03.291Z,75.50
2022-09-06T20:41:33.791Z,76.10
2022-09-06T20:44:03.830Z,78.00
2022-09-06T20:46:35.422Z,81.30
2022-09-06T20:49:05.430Z,83.70
2022-09-06T20:51:35.602Z,85.60
2022-09-06T20:54:05.252Z,87.20
2022-09-06T20:56:34.778Z,87.30
2022-09-06T20:59:06.241Z,87.40
2022-09-06T21:01:36.275Z,87.40
2022-09-06T21:04:06.668Z,84.90
2022-09-06T21:06:36.522Z,84.60
2022-09-06T21:09:06.487Z,84.60
2022-09-06T21:11:34.817Z,84.80
2022-09-06T21:14:05.721Z,85.90
2022-09-06T21:16:34.492Z,86.80
2022-09-06T21:19:05.425Z,87.90
2022-09-06T21:21:35.653Z,88.60
2022-09-06T21:24:05.623Z,90.20
2022-09-06T21:26:34.616Z,90.60
2022-09-06T21:29:04.616Z,90.50
2022-09-06T21:31:34.523Z,90.60
2022-09-06T21:34:05.028Z,89.40
2022-09-06T21:36:35.192Z,87.80
2022-09-06T21:39:05.955Z,85.40
2022-09-06T21:41:35.240Z,84.90
2022-09-06T21:44:06.688Z,85.90
2022-09-06T21:46:36.718Z,85.80
2022-09-06T21:49:07.079Z,85.90
2022-09-06T21:51:35.678Z,86.10
2022-09-06T21:54:04.962Z,86.30
2022-09-06T21:56:33.982Z,86.70
2022-09-06T21:59:02.548Z,86.10
2022-09-06T22:01:34.859Z,86.00
2022-09-06T22:04:03.414Z,85.20
2022-09-06T22:06:32.822Z,85.00
2022-09-06T22:09:02.871Z,85.20
2022-09-06T22:11:32.819Z,85.60
2022-09-06T22:14:02.302Z,85.70
2022-09-06T22:16:33.359Z,85.90
2022-09-06T22:19:01.654Z,85.90
2022-09-06T22:21:29.797Z,85.90
2022-09-06T22:24:00.004Z,86.10
2022-09-06T22:26:30.219Z,86.20
2022-09-06T22:29:00.097Z,86.20
2022-09-06T22:31:30.284Z,86.40
2022-09-06T22:34:00.403Z,86.50
2022-09-06T22:36:29.343Z,86.40
2022-09-06T22:38:58.560Z,86.30
2022-09-06T22:41:27.469Z,86.30
2022-09-06T22:43:56.502Z,86.20
2022-09-06T22:46:24.726Z,86.30
2022-09-06T22:48:53.180Z,86.30
2022-09-06T22:51:22.823Z,86.40
2022-09-06T22:53:50.967Z,86.90
2022-09-06T22:56:19.162Z,87.00
2022-09-06T22:58:47.321Z,87.30
2022-09-06T23:01:16.879Z,87.40
2022-09-06T23:03:46.259Z,87.60
2022-09-06T23:06:14.457Z,88.00
2022-09-06T23:08:44.326Z,88.60
2022-09-06T23:11:14.341Z,89.10
2022-09-06T23:13:44.444Z,89.70
2022-09-06T23:16:15.369Z,90.30
2022-09-06T23:18:44.717Z,90.50
2022-09-06T23:21:15.525Z,90.60
2022-09-06T23:23:45.415Z,91.00
2022-09-06T23:26:15.991Z,92.40
2022-09-06T23:28:44.771Z,93.90
2022-09-06T23:31:14.964Z,96.40
2022-09-06T23:33:43.620Z,99.40
2022-09-06T23:36:13.606Z,99.90
2022-09-06T23:38:44.228Z,99.90
2022-09-06T23:41:13.373Z,99.90
2022-09-06T23:43:43.188Z,99.90
2022-09-06T23:46:13.157Z,99.90
2022-09-06T23:48:41.391Z,99.90
2022-09-06T23:51:09.952Z,99.90
2022-09-06T23:53:38.499Z,99.90
2022-09-06T23:56:08.827Z,99.90
2022-09-06T23:58:37.862Z,99.90
